| time (UTC) | temp F | wind direction | speed knots | gust knots | rain 1hr in | rain 24hr in | rain mn in | humidity % | barometer mb |
| 20260901174549 | 78 | 355 | 14.8 | 19.1 | 0.00 | 0.00 | 0.00 | 30 | 1003.4 |
| 20260901173045 | 77 | 355 | 11.3 | 17.4 | 0.00 | 0.00 | 0.00 | 31 | 1003.4 |
| 20260901171541 | 76 | 355 | 9.6 | 16.5 | 0.00 | 0.00 | 0.00 | 31 | 1003.4 |
| 20260901170028 | 74 | 355 | 7.0 | 12.2 | 0.00 | 0.00 | 0.00 | 35 | 1003.4 |
| 20260901164608 | 72 | 355 | 7.0 | 10.4 | 0.00 | 0.00 | 0.00 | 37 | 1003.4 |
| 20260901163016 | 71 | 355 | 5.2 | 9.6 | 0.00 | 0.00 | 0.00 | 37 | 1003.4 |
| 20260901161530 | 67 | 355 | 3.5 | 7.0 | 0.00 | 0.00 | 0.00 | 44 | 1003.4 |
| 20260901160037 | 63 | 355 | 1.7 | 5.2 | 0.00 | 0.00 | 0.00 | 52 | 1003.4 |
| 20260901154520 | 59 | 355 | 0.0 | 0.0 | 0.00 | 0.00 | 0.00 | 58 | 1003.4 |
| 20260901153026 | 57 | 355 | 0.0 | 0.0 | 0.00 | 0.00 | 0.00 | 60 | 1003.4 |
| 20260901151604 | 55 | 355 | 0.0 | 0.0 | 0.00 | 0.00 | 0.00 | 65 | 1003.4 |
| 20260901150039 | 52 | 355 | 0.0 | 0.0 | 0.00 | 0.00 | 0.00 | 65 | 1003.4 |
| 20260901144559 | 52 | 355 | 0.0 | 0.0 | 0.00 | 0.00 | 0.00 | 68 | 1003.4 |
| 20260901143121 | 52 | 355 | 0.0 | 0.0 | 0.00 | 0.00 | 0.00 | 68 | 1003.4 |
| 20260901141547 | 50 | 355 | 0.0 | 0.0 | 0.00 | 0.00 | 0.00 | 67 | 1003.4 |
| 20260901140013 | 49 | 355 | 0.0 | 0.0 | 0.00 | 0.00 | 0.00 | 68 | 1003.4 |
| 20260901134549 | 49 | 355 | 0.0 | 0.0 | 0.00 | 0.00 | 0.00 | 65 | 1003.4 |
| 20260901133055 | 49 | 355 | 0.0 | 0.0 | 0.00 | 0.00 | 0.00 | 65 | 1003.4 |
| 20260901131508 | 48 | 355 | 0.0 | 0.0 | 0.00 | 0.00 | 0.00 | 65 | 1003.4 |
| 20260901130048 | 48 | 355 | 0.0 | 0.0 | 0.00 | 0.00 | 0.00 | 65 | 1003.4 |
| 20260901124521 | 48 | 355 | 0.0 | 0.0 | 0.00 | 0.00 | 0.00 | 68 | 1003.4 |
| 20260901123053 | 49 | 355 | 0.0 | 0.0 | 0.00 | 0.00 | 0.00 | 66 | 1003.4 |
| 20260901121538 | 48 | 355 | 0.0 | 0.0 | 0.00 | 0.00 | 0.00 | 66 | 1003.4 |
| 20260901120013 | 48 | 355 | 0.0 | 0.0 | 0.00 | 0.00 | 0.00 | 64 | 1003.4 |
| 20260901114556 | 48 | 355 | 0.0 | 0.0 | 0.00 | 0.00 | 0.00 | 64 | 1003.4 |
| 20260901113054 | 48 | 355 | 0.0 | 0.0 | 0.00 | 0.00 | 0.00 | 62 | 1003.4 |
| 20260901111608 | 49 | 355 | 0.0 | 0.0 | 0.00 | 0.00 | 0.00 | 61 | 1003.4 |
| 20260901110113 | 49 | 355 | 0.0 | 0.0 | 0.00 | 0.00 | 0.00 | 61 | 1003.4 |
| 20260901104559 | 49 | 355 | 0.0 | 0.0 | 0.00 | 0.00 | 0.00 | 62 | 1003.4 |
| 20260901103050 | 49 | 355 | 0.0 | 0.0 | 0.00 | 0.00 | 0.00 | 66 | 1003.4 |
| 20260901101602 | 49 | 355 | 0.0 | 0.0 | 0.00 | 0.00 | 0.00 | 68 | 1003.4 |
| 20260901100002 | 49 | 355 | 0.0 | 1.7 | 0.00 | 0.00 | 0.00 | 62 | 1003.4 |
| 20260901094602 | 50 | 355 | 1.7 | 3.5 | 0.00 | 0.00 | 0.00 | 59 | 1003.4 |
| 20260901093002 | 51 | 355 | 0.0 | 0.0 | 0.00 | 0.00 | 0.00 | 56 | 1003.4 |
| 20260901091517 | 52 | 355 | 0.0 | 2.6 | 0.00 | 0.00 | 0.00 | 57 | 1003.4 |
| 20260901090032 | 52 | 355 | 0.0 | 0.0 | 0.00 | 0.00 | 0.00 | 57 | 1003.4 |
| 20260901084542 | 52 | 355 | 0.0 | 0.0 | 0.00 | 0.00 | 0.00 | 57 | 1003.4 |
| 20260901083032 | 52 | 355 | 0.0 | 0.0 | 0.00 | 0.00 | 0.00 | 59 | 1003.4 |
| 20260901081517 | 52 | 355 | 0.0 | 0.0 | 0.00 | 0.00 | 0.00 | 61 | 1003.4 |
| 20260901080008 | 53 | 355 | 0.9 | 2.6 | 0.00 | 0.00 | 0.00 | 55 | 1003.4 |
| 20260901074605 | 54 | 355 | 0.9 | 3.5 | 0.00 | 0.00 | 0.00 | 54 | 1003.4 |
| 20260901073004 | 53 | 355 | 2.6 | 5.2 | 0.00 | 0.00 | 0.00 | 56 | 1003.4 |
| 20260901071510 | 53 | 355 | 0.0 | 0.9 | 0.00 | 0.00 | 0.00 | 61 | 1003.4 |
| 20260901070011 | 53 | 355 | 1.7 | 3.5 | 0.00 | 0.00 | 0.00 | 65 | 1003.4 |
| 20260901064502 | 55 | 355 | 2.6 | 4.3 | 0.00 | 0.00 | 0.00 | 61 | 1003.4 |
| 20260901063032 | 57 | 355 | 1.7 | 3.5 | 0.00 | 0.00 | 0.00 | 51 | 1003.4 |
| 20260901061528 | 57 | 355 | 0.0 | 1.7 | 0.00 | 0.00 | 0.00 | 48 | 1003.4 |
| 20260901060059 | 57 | 355 | 1.7 | 4.3 | 0.00 | 0.00 | 0.00 | 47 | 1003.4 |
| 20260901054611 | 58 | 355 | 0.9 | 2.6 | 0.00 | 0.00 | 0.00 | 45 | 1003.4 |
| 20260901053024 | 60 | 355 | 0.0 | 0.0 | 0.00 | 0.00 | 0.00 | 44 | 1003.4 |
| 20260901051545 | 60 | 355 | 1.7 | 3.5 | 0.00 | 0.00 | 0.00 | 42 | 1003.4 |
| 20260901050005 | 62 | 355 | 1.7 | 3.5 | 0.00 | 0.00 | 0.00 | 41 | 1003.4 |
| 20260901044508 | 62 | 355 | 0.0 | 0.0 | 0.00 | 0.00 | 0.00 | 41 | 1003.4 |
| 20260901043106 | 63 | 355 | 1.7 | 3.5 | 0.00 | 0.00 | 0.00 | 44 | 1003.4 |
| 20260901041555 | 64 | 355 | 1.7 | 2.6 | 0.00 | 0.00 | 0.00 | 43 | 1003.4 |
| 20260901040003 | 66 | 355 | 0.0 | 0.0 | 0.00 | 0.00 | 0.00 | 37 | 1003.4 |
| 20260901034607 | 67 | 355 | 0.0 | 0.0 | 0.00 | 0.00 | 0.00 | 33 | 1003.4 |
| 20260901033048 | 67 | 355 | 0.0 | 0.0 | 0.00 | 0.00 | 0.00 | 34 | 1003.4 |
| 20260901031558 | 69 | 355 | 0.0 | 0.0 | 0.00 | 0.00 | 0.00 | 33 | 1003.4 |
| 20260901030054 | 69 | 355 | 0.0 | 0.0 | 0.00 | 0.00 | 0.00 | 31 | 1003.4 |
| 20260901024606 | 70 | 355 | 0.0 | 0.0 | 0.00 | 0.00 | 0.00 | 31 | 1003.4 |
| 20260901023057 | 72 | 355 | 0.0 | 0.0 | 0.00 | 0.00 | 0.00 | 29 | 1003.4 |
| 20260901021626 | 73 | 355 | 0.0 | 2.6 | 0.00 | 0.00 | 0.00 | 28 | 1003.4 |
| 20260901020003 | 75 | 355 | 2.6 | 5.2 | 0.00 | 0.00 | 0.00 | 26 | 1003.4 |
| 20260901014539 | 75 | 355 | 2.6 | 5.2 | 0.00 | 0.00 | 0.00 | 26 | 1003.4 |
| 20260901013031 | 76 | 355 | 2.6 | 7.0 | 0.00 | 0.00 | 0.00 | 25 | 1003.4 |
| 20260901011521 | 77 | 355 | 6.1 | 9.6 | 0.00 | 0.00 | 0.00 | 23 | 1003.4 |
| 20260901010035 | 78 | 355 | 7.8 | 11.3 | 0.00 | 0.00 | 0.00 | 22 | 1003.4 |
| 20260901004529 | 78 | 355 | 8.7 | 12.2 | 0.00 | 0.00 | 0.00 | 21 | 1003.4 |
| 20260901003042 | 79 | 355 | 8.7 | 13.9 | 0.00 | 0.00 | 0.00 | 21 | 1003.4 |
| 20260901001555 | 79 | 355 | 7.8 | 12.2 | 0.00 | 0.00 | 0.00 | 21 | 1003.4 |
| 20260831234516 | 80 | 355 | 8.7 | 14.8 | 0.00 | 0.00 | 0.00 | 21 | 1003.4 |
| 20260831233008 | 80 | 355 | 10.4 | 14.8 | 0.00 | 0.00 | 0.00 | 20 | 1003.4 |
| 20260831231551 | 80 | 355 | 8.7 | 13.9 | 0.00 | 0.00 | 0.00 | 20 | 1003.4 |
| 20260831230056 | 79 | 355 | 11.3 | 18.2 | 0.00 | 0.00 | 0.00 | 21 | 1003.4 |
| 20260831224554 | 79 | 355 | 12.2 | 20.0 | 0.00 | 0.00 | 0.00 | 21 | 1003.4 |
| 20260831223054 | 78 | 355 | 13.0 | 19.1 | 0.00 | 0.00 | 0.00 | 22 | 1003.4 |
| 20260831221517 | 78 | 355 | 13.9 | 20.9 | 0.00 | 0.00 | 0.00 | 22 | 1003.4 |
| 20260831220047 | 78 | 355 | 13.9 | 22.6 | 0.00 | 0.00 | 0.00 | 22 | 1003.4 |
| 20260831214505 | 78 | 355 | 13.0 | 20.0 | 0.00 | 0.00 | 0.00 | 23 | 1003.4 |
| 20260831213029 | 78 | 355 | 14.8 | 20.0 | 0.00 | 0.00 | 0.00 | 22 | 1003.4 |
| 20260831211618 | 78 | 355 | 11.3 | 18.2 | 0.00 | 0.00 | 0.00 | 23 | 1003.4 |
| 20260831210130 | 77 | 355 | 10.4 | 16.5 | 0.00 | 0.00 | 0.00 | 23 | 1003.4 |
| 20260831204508 | 77 | 355 | 9.6 | 13.9 | 0.00 | 0.00 | 0.00 | 24 | 1003.4 |
| 20260831203015 | 76 | 355 | 9.6 | 15.6 | 0.00 | 0.00 | 0.00 | 24 | 1003.4 |
| 20260831201533 | 76 | 355 | 11.3 | 17.4 | 0.00 | 0.00 | 0.00 | 24 | 1003.4 |
| 20260831200100 | 75 | 355 | 13.9 | 19.1 | 0.00 | 0.00 | 0.00 | 24 | 1003.4 |
| 20260831194512 | 74 | 355 | 9.6 | 17.4 | 0.00 | 0.00 | 0.00 | 25 | 1003.4 |
| 20260831193023 | 74 | 355 | 12.2 | 18.2 | 0.00 | 0.00 | 0.00 | 25 | 1003.4 |
| 20260831191525 | 73 | 355 | 12.2 | 18.2 | 0.00 | 0.00 | 0.00 | 27 | 1003.4 |
| 20260831190046 | 72 | 355 | 12.2 | 16.5 | 0.00 | 0.00 | 0.00 | 27 | 1003.4 |
| 20260831184606 | 72 | 355 | 9.6 | 16.5 | 0.00 | 0.00 | 0.00 | 27 | 1003.4 |
| 20260831183024 | 71 | 355 | 11.3 | 16.5 | 0.00 | 0.00 | 0.00 | 27 | 1003.4 |
| 20260831180135 | 70 | 355 | 10.4 | 15.6 | 0.00 | 0.00 | 0.00 | 28 | 1003.4 |